Terminal Aerodrome Forecast
Issued by NWS Boise, ID

Home | Current Version | Previous Version | Text Only | Print | Product List | Glossary On
Versions: 1 2 3 4 5 6 7 8 9 10 11 12 13 14 15
000
FTUS45 KBOI 312321
TAFBOI
TAF
KBOI 312321Z 0100/0124 VRB06KT P6SM SCT150
     FM010500 13008KT P6SM SCT015
     FM011800 18012KT P6SM VCSH BKN060 OVC100
     FM012300 31012KT P6SM -SHRA BKN040 OVC060=

USA.gov is the U.S. government's official web portal to all federal, state and local government web resources and services.